sensor_id;sensor_type;location;lat;lon;timestamp;pressure;altitude;pressure_sealevel;temperature;humidity
10484;BME280;5289;42.610;23.362;2022-07-25T00:00:03;90608.59;;;19.41;100.00
10484;BME280;5289;42.610;23.362;2022-07-25T00:02:30;90619.25;;;19.41;100.00
10484;BME280;5289;42.610;23.362;2022-07-25T00:04:56;90624.56;;;19.41;100.00
10484;BME280;5289;42.610;23.362;2022-07-25T00:07:23;90640.56;;;19.41;100.00
10484;BME280;5289;42.610;23.362;2022-07-25T00:09:51;90651.56;;;19.39;100.00
10484;BME280;5289;42.610;23.362;2022-07-25T00:12:17;90655.75;;;19.40;100.00
10484;BME280;5289;42.610;23.362;2022-07-25T00:14:44;90653.88;;;19.41;100.00
10484;BME280;5289;42.610;23.362;2022-07-25T00:17:10;90660.47;;;19.43;100.00
10484;BME280;5289;42.610;23.362;2022-07-25T00:19:37;90659.88;;;19.46;100.00
10484;BME280;5289;42.610;23.362;2022-07-25T00:22:03;90666.94;;;19.51;100.00
10484;BME280;5289;42.610;23.362;2022-07-25T00:24:30;90673.97;;;19.55;100.00
10484;BME280;5289;42.610;23.362;2022-07-25T00:26:58;90679.50;;;19.59;100.00
10484;BME280;5289;42.610;23.362;2022-07-25T00:29:24;90678.06;;;19.61;100.00
10484;BME280;5289;42.610;23.362;2022-07-25T00:31:51;90681.22;;;19.63;100.00
10484;BME280;5289;42.610;23.362;2022-07-25T00:34:17;90684.97;;;19.62;100.00
10484;BME280;5289;42.610;23.362;2022-07-25T00:36:44;90700.81;;;19.59;100.00
10484;BME280;5289;42.610;23.362;2022-07-25T00:39:10;90715.69;;;19.51;100.00
10484;BME280;5289;42.610;23.362;2022-07-25T00:41:37;90711.00;;;19.48;100.00
10484;BME280;5289;42.610;23.362;2022-07-25T00:44:05;90718.81;;;19.45;100.00
10484;BME280;5289;42.610;23.362;2022-07-25T00:46:31;90735.69;;;19.40;100.00
10484;BME280;5289;42.610;23.362;2022-07-25T00:48:58;90739.31;;;19.35;100.00
10484;BME280;5289;42.610;23.362;2022-07-25T00:51:24;90755.44;;;19.30;100.00
10484;BME280;5289;42.610;23.362;2022-07-25T00:53:51;90764.34;;;19.26;100.00
10484;BME280;5289;42.610;23.362;2022-07-25T00:56:17;90766.38;;;19.20;100.00
10484;BME280;5289;42.610;23.362;2022-07-25T00:58:44;90770.75;;;19.16;100.00
10484;BME280;5289;42.610;23.362;2022-07-25T01:01:12;90785.31;;;19.10;100.00
10484;BME280;5289;42.610;23.362;2022-07-25T01:03:38;90780.56;;;19.07;100.00
10484;BME280;5289;42.610;23.362;2022-07-25T01:06:05;90775.88;;;19.04;100.00
10484;BME280;5289;42.610;23.362;2022-07-25T01:08:32;90778.25;;;19.06;100.00
10484;BME280;5289;42.610;23.362;2022-07-25T01:10:59;90769.31;;;19.10;100.00
10484;BME280;5289;42.610;23.362;2022-07-25T01:13:25;90772.13;;;19.14;100.00
10484;BME280;5289;42.610;23.362;2022-07-25T01:15:52;90777.47;;;19.14;100.00
10484;BME280;5289;42.610;23.362;2022-07-25T01:18:20;90777.97;;;19.16;100.00
10484;BME280;5289;42.610;23.362;2022-07-25T01:20:48;90781.09;;;19.18;100.00
10484;BME280;5289;42.610;23.362;2022-07-25T01:23:14;90776.72;;;19.22;100.00
10484;BME280;5289;42.610;23.362;2022-07-25T01:25:41;90783.63;;;19.23;100.00
10484;BME280;5289;42.610;23.362;2022-07-25T01:28:07;90776.88;;;19.25;100.00
10484;BME280;5289;42.610;23.362;2022-07-25T01:30:34;90784.59;;;19.27;100.00
10484;BME280;5289;42.610;23.362;2022-07-25T01:33:00;90788.81;;;19.28;100.00
10484;BME280;5289;42.610;23.362;2022-07-25T01:35:27;90791.47;;;19.28;100.00
10484;BME280;5289;42.610;23.362;2022-07-25T01:37:55;90792.09;;;19.25;100.00
10484;BME280;5289;42.610;23.362;2022-07-25T01:40:21;90801.34;;;19.27;100.00
10484;BME280;5289;42.610;23.362;2022-07-25T01:42:48;90796.31;;;19.26;100.00
10484;BME280;5289;42.610;23.362;2022-07-25T01:45:14;90801.78;;;19.21;100.00
10484;BME280;5289;42.610;23.362;2022-07-25T01:47:41;90803.50;;;19.17;100.00
10484;BME280;5289;42.610;23.362;2022-07-25T01:50:07;90825.41;;;19.14;100.00
10484;BME280;5289;42.610;23.362;2022-07-25T01:52:34;90829.50;;;19.11;100.00
10484;BME280;5289;42.610;23.362;2022-07-25T01:55:02;90830.56;;;19.10;100.00
10484;BME280;5289;42.610;23.362;2022-07-25T01:57:29;90832.44;;;19.10;100.00
10484;BME280;5289;42.610;23.362;2022-07-25T01:59:55;90834.31;;;19.09;100.00
10484;BME280;5289;42.610;23.362;2022-07-25T02:02:22;90834.16;;;19.06;100.00
10484;BME280;5289;42.610;23.362;2022-07-25T02:04:49;90841.78;;;18.99;100.00
10484;BME280;5289;42.610;23.362;2022-07-25T02:07:15;90851.31;;;18.91;100.00
10484;BME280;5289;42.610;23.362;2022-07-25T02:09:42;90851.25;;;18.82;100.00
10484;BME280;5289;42.610;23.362;2022-07-25T02:12:09;90857.78;;;18.76;100.00
10484;BME280;5289;42.610;23.362;2022-07-25T02:14:36;90851.81;;;18.71;100.00
10484;BME280;5289;42.610;23.362;2022-07-25T02:17:02;90853.81;;;18.65;100.00
10484;BME280;5289;42.610;23.362;2022-07-25T02:19:29;90856.91;;;18.59;100.00
10484;BME280;5289;42.610;23.362;2022-07-25T02:21:55;90859.19;;;18.51;100.00
10484;BME280;5289;42.610;23.362;2022-07-25T02:24:22;90868.06;;;18.47;100.00
10484;BME280;5289;42.610;23.362;2022-07-25T02:26:48;90863.16;;;18.40;100.00
10484;BME280;5289;42.610;23.362;2022-07-25T02:29:16;90869.69;;;18.34;100.00
10484;BME280;5289;42.610;23.362;2022-07-25T02:31:43;90880.72;;;18.28;100.00
10484;BME280;5289;42.610;23.362;2022-07-25T02:34:09;90887.56;;;18.20;100.00
10484;BME280;5289;42.610;23.362;2022-07-25T02:36:36;90898.63;;;18.14;100.00
10484;BME280;5289;42.610;23.362;2022-07-25T02:39:03;90894.03;;;18.05;100.00
10484;BME280;5289;42.610;23.362;2022-07-25T02:41:29;90893.63;;;17.98;100.00
10484;BME280;5289;42.610;23.362;2022-07-25T02:43:56;90899.06;;;17.93;100.00
10484;BME280;5289;42.610;23.362;2022-07-25T02:46:24;90896.50;;;17.88;100.00
10484;BME280;5289;42.610;23.362;2022-07-25T02:48:51;90894.75;;;17.84;100.00
10484;BME280;5289;42.610;23.362;2022-07-25T02:51:17;90904.69;;;17.78;100.00
10484;BME280;5289;42.610;23.362;2022-07-25T02:53:44;90897.59;;;17.74;100.00
10484;BME280;5289;42.610;23.362;2022-07-25T02:56:10;90899.59;;;17.68;100.00
10484;BME280;5289;42.610;23.362;2022-07-25T02:58:37;90894.84;;;17.65;100.00
10484;BME280;5289;42.610;23.362;2022-07-25T03:01:03;90899.97;;;17.61;100.00
10484;BME280;5289;42.610;23.362;2022-07-25T03:03:31;90907.69;;;17.58;100.00
10484;BME280;5289;42.610;23.362;2022-07-25T03:05:58;90905.66;;;17.55;100.00
10484;BME280;5289;42.610;23.362;2022-07-25T03:08:24;90906.53;;;17.50;100.00
10484;BME280;5289;42.610;23.362;2022-07-25T03:10:51;90908.22;;;17.46;100.00
10484;BME280;5289;42.610;23.362;2022-07-25T03:13:17;90903.47;;;17.43;100.00
10484;BME280;5289;42.610;23.362;2022-07-25T03:15:44;90904.88;;;17.41;100.00
10484;BME280;5289;42.610;23.362;2022-07-25T03:18:10;90903.84;;;17.37;100.00
10484;BME280;5289;42.610;23.362;2022-07-25T03:20:38;90906.84;;;17.35;100.00
10484;BME280;5289;42.610;23.362;2022-07-25T03:23:05;90905.53;;;17.33;100.00
10484;BME280;5289;42.610;23.362;2022-07-25T03:25:31;90903.66;;;17.33;100.00
10484;BME280;5289;42.610;23.362;2022-07-25T03:27:58;90908.69;;;17.35;100.00
10484;BME280;5289;42.610;23.362;2022-07-25T03:30:24;90896.50;;;17.34;100.00
10484;BME280;5289;42.610;23.362;2022-07-25T03:32:51;90905.25;;;17.34;100.00
10484;BME280;5289;42.610;23.362;2022-07-25T03:35:19;90897.75;;;17.36;100.00
10484;BME280;5289;42.610;23.362;2022-07-25T03:37:47;90909.16;;;17.37;100.00
10484;BME280;5289;42.610;23.362;2022-07-25T03:40:13;90909.06;;;17.42;100.00
10484;BME280;5289;42.610;23.362;2022-07-25T03:42:40;90901.31;;;17.45;100.00
10484;BME280;5289;42.610;23.362;2022-07-25T03:45:07;90904.66;;;17.51;100.00
10484;BME280;5289;42.610;23.362;2022-07-25T03:47:34;90895.03;;;17.55;100.00
10484;BME280;5289;42.610;23.362;2022-07-25T03:50:00;90898.91;;;17.62;100.00
10484;BME280;5289;42.610;23.362;2022-07-25T03:52:27;90885.59;;;17.76;100.00
10484;BME280;5289;42.610;23.362;2022-07-25T03:54:55;90842.91;;;18.31;100.00
10484;BME280;5289;42.610;23.362;2022-07-25T03:57:21;90791.41;;;19.11;100.00
10484;BME280;5289;42.610;23.362;2022-07-25T03:59:48;90812.97;;;19.31;100.00
10484;BME280;5289;42.610;23.362;2022-07-25T04:02:14;90843.59;;;19.51;100.00
10484;BME280;5289;42.610;23.362;2022-07-25T04:04:41;90888.69;;;19.70;100.00
10484;BME280;5289;42.610;23.362;2022-07-25T04:07:07;90938.59;;;19.87;100.00
10484;BME280;5289;42.610;23.362;2022-07-25T04:09:34;90912.88;;;20.82;100.00
10484;BME280;5289;42.610;23.362;2022-07-25T04:12:02;90929.28;;;21.91;100.00
10484;BME280;5289;42.610;23.362;2022-07-25T04:14:28;91019.84;;;23.68;100.00
10484;BME280;5289;42.610;23.362;2022-07-25T04:16:55;91293.25;;;25.06;100.00
10484;BME280;5289;42.610;23.362;2022-07-25T04:19:21;91562.56;;;26.45;100.00
10484;BME280;5289;42.610;23.362;2022-07-25T04:21:48;91922.19;;;27.06;100.00
10484;BME280;5289;42.610;23.362;2022-07-25T04:24:14;92092.78;;;27.03;100.00
10484;BME280;5289;42.610;23.362;2022-07-25T04:26:41;92154.25;;;27.27;100.00
10484;BME280;5289;42.610;23.362;2022-07-25T04:29:09;92183.34;;;27.21;100.00
10484;BME280;5289;42.610;23.362;2022-07-25T04:31:35;92179.56;;;26.50;100.00
10484;BME280;5289;42.610;23.362;2022-07-25T04:34:02;92095.50;;;25.76;100.00
10484;BME280;5289;42.610;23.362;2022-07-25T04:36:28;92030.22;;;25.87;100.00
10484;BME280;5289;42.610;23.362;2022-07-25T04:38:55;92082.84;;;28.08;100.00
10484;BME280;5289;42.610;23.362;2022-07-25T04:41:21;92281.38;;;30.07;100.00
10484;BME280;5289;42.610;23.362;2022-07-25T04:43:48;92380.06;;;31.47;100.00
10484;BME280;5289;42.610;23.362;2022-07-25T04:46:18;92553.06;;;32.39;100.00
10484;BME280;5289;42.610;23.362;2022-07-25T04:48:44;92632.91;;;33.02;100.00
10484;BME280;5289;42.610;23.362;2022-07-25T04:51:11;92705.88;;;33.71;100.00
10484;BME280;5289;42.610;23.362;2022-07-25T04:53:37;92832.03;;;34.31;100.00
10484;BME280;5289;42.610;23.362;2022-07-25T04:56:04;92884.78;;;34.86;100.00
10484;BME280;5289;42.610;23.362;2022-07-25T04:58:31;92941.69;;;35.34;100.00
10484;BME280;5289;42.610;23.362;2022-07-25T05:00:58;92935.38;;;35.88;100.00
10484;BME280;5289;42.610;23.362;2022-07-25T05:03:26;93002.72;;;36.35;100.00
10484;BME280;5289;42.610;23.362;2022-07-25T05:05:52;93031.31;;;36.60;100.00
10484;BME280;5289;42.610;23.362;2022-07-25T05:08:19;93050.81;;;36.97;100.00
10484;BME280;5289;42.610;23.362;2022-07-25T05:10:45;93038.72;;;37.24;100.00
10484;BME280;5289;42.610;23.362;2022-07-25T05:13:12;93033.59;;;37.49;100.00
10484;BME280;5289;42.610;23.362;2022-07-25T05:15:38;93089.75;;;37.81;100.00
10484;BME280;5289;42.610;23.362;2022-07-25T05:18:05;93150.53;;;38.10;100.00
10484;BME280;5289;42.610;23.362;2022-07-25T05:20:33;93131.66;;;38.34;100.00
10484;BME280;5289;42.610;23.362;2022-07-25T05:22:59;93147.50;;;38.78;100.00
10484;BME280;5289;42.610;23.362;2022-07-25T05:25:26;93124.28;;;39.12;100.00
10484;BME280;5289;42.610;23.362;2022-07-25T05:27:53;93198.97;;;39.14;100.00
10484;BME280;5289;42.610;23.362;2022-07-25T05:30:21;93136.81;;;39.06;100.00
10484;BME280;5289;42.610;23.362;2022-07-25T05:32:48;93166.44;;;39.27;100.00
10484;BME280;5289;42.610;23.362;2022-07-25T05:35:14;93204.91;;;39.61;100.00
10484;BME280;5289;42.610;23.362;2022-07-25T05:37:42;93186.25;;;39.84;100.00
10484;BME280;5289;42.610;23.362;2022-07-25T05:40:09;93199.13;;;40.20;100.00
10484;BME280;5289;42.610;23.362;2022-07-25T05:42:35;93201.22;;;40.45;100.00
10484;BME280;5289;42.610;23.362;2022-07-25T05:45:02;93242.97;;;40.50;100.00
10484;BME280;5289;42.610;23.362;2022-07-25T05:47:29;93241.94;;;40.69;100.00
10484;BME280;5289;42.610;23.362;2022-07-25T05:49:55;93169.97;;;40.95;100.00
10484;BME280;5289;42.610;23.362;2022-07-25T05:52:22;93228.81;;;41.38;100.00
10484;BME280;5289;42.610;23.362;2022-07-25T05:54:50;93178.00;;;41.78;100.00
10484;BME280;5289;42.610;23.362;2022-07-25T05:57:16;93208.38;;;41.53;100.00
10484;BME280;5289;42.610;23.362;2022-07-25T05:59:43;93263.47;;;41.36;100.00
10484;BME280;5289;42.610;23.362;2022-07-25T06:02:09;93247.00;;;41.68;100.00
10484;BME280;5289;42.610;23.362;2022-07-25T06:04:36;93223.34;;;41.74;100.00
10484;BME280;5289;42.610;23.362;2022-07-25T06:07:02;93250.63;;;42.04;100.00
10484;BME280;5289;42.610;23.362;2022-07-25T06:09:29;93234.84;;;42.15;100.00
10484;BME280;5289;42.610;23.362;2022-07-25T06:11:57;93262.44;;;41.86;100.00
10484;BME280;5289;42.610;23.362;2022-07-25T06:14:23;93232.03;;;41.54;100.00
10484;BME280;5289;42.610;23.362;2022-07-25T06:16:50;93255.75;;;42.09;100.00
10484;BME280;5289;42.610;23.362;2022-07-25T06:19:16;93262.88;;;42.10;100.00
10484;BME280;5289;42.610;23.362;2022-07-25T06:21:43;93235.63;;;42.29;100.00
10484;BME280;5289;42.610;23.362;2022-07-25T06:24:10;93260.81;;;42.77;100.00
10484;BME280;5289;42.610;23.362;2022-07-25T06:26:36;93246.63;;;42.61;100.00
10484;BME280;5289;42.610;23.362;2022-07-25T06:29:04;93265.97;;;42.75;100.00
10484;BME280;5289;42.610;23.362;2022-07-25T06:31:31;93243.00;;;41.44;100.00
10484;BME280;5289;42.610;23.362;2022-07-25T06:33:57;93256.50;;;41.81;100.00
10484;BME280;5289;42.610;23.362;2022-07-25T06:36:24;93284.56;;;42.39;100.00
10484;BME280;5289;42.610;23.362;2022-07-25T06:38:50;93258.13;;;42.14;100.00
10484;BME280;5289;42.610;23.362;2022-07-25T06:41:17;93269.97;;;42.35;100.00
10484;BME280;5289;42.610;23.362;2022-07-25T06:43:44;93270.50;;;43.35;100.00
10484;BME280;5289;42.610;23.362;2022-07-25T06:46:13;93261.34;;;43.52;100.00
10484;BME280;5289;42.610;23.362;2022-07-25T06:48:40;93263.28;;;44.14;100.00
10484;BME280;5289;42.610;23.362;2022-07-25T06:51:06;93256.59;;;43.49;100.00
10484;BME280;5289;42.610;23.362;2022-07-25T06:53:33;93249.03;;;43.60;100.00
10484;BME280;5289;42.610;23.362;2022-07-25T06:55:59;93254.41;;;43.82;100.00
10484;BME280;5289;42.610;23.362;2022-07-25T06:58:26;93250.44;;;43.83;100.00
10484;BME280;5289;42.610;23.362;2022-07-25T07:00:52;93253.66;;;43.78;100.00
10484;BME280;5289;42.610;23.362;2022-07-25T07:03:20;93260.25;;;44.50;100.00
10484;BME280;5289;42.610;23.362;2022-07-25T07:05:47;93260.88;;;44.64;100.00
10484;BME280;5289;42.610;23.362;2022-07-25T07:08:13;93263.91;;;44.80;100.00
10484;BME280;5289;42.610;23.362;2022-07-25T07:10:40;93256.53;;;45.01;100.00
10484;BME280;5289;42.610;23.362;2022-07-25T07:13:07;93258.91;;;45.02;100.00
10484;BME280;5289;42.610;23.362;2022-07-25T07:15:34;93262.28;;;44.83;100.00
10484;BME280;5289;42.610;23.362;2022-07-25T07:18:01;93252.44;;;44.78;100.00
10484;BME280;5289;42.610;23.362;2022-07-25T07:20:28;93259.44;;;44.90;100.00
10484;BME280;5289;42.610;23.362;2022-07-25T07:22:55;93253.28;;;45.70;96.29
10484;BME280;5289;42.610;23.362;2022-07-25T07:25:22;93252.03;;;45.48;100.00
10484;BME280;5289;42.610;23.362;2022-07-25T07:27:49;93254.00;;;45.47;100.00
10484;BME280;5289;42.610;23.362;2022-07-25T07:30:16;93261.41;;;44.93;95.35
10484;BME280;5289;42.610;23.362;2022-07-25T07:32:43;93249.78;;;44.68;100.00
10484;BME280;5289;42.610;23.362;2022-07-25T07:35:10;93248.16;;;45.38;96.44
10484;BME280;5289;42.610;23.362;2022-07-25T07:37:38;93236.44;;;45.84;100.00
10484;BME280;5289;42.610;23.362;2022-07-25T07:40:05;93240.88;;;45.51;96.16
10484;BME280;5289;42.610;23.362;2022-07-25T07:42:36;93243.97;;;45.57;89.13
10484;BME280;5289;42.610;23.362;2022-07-25T07:45:03;93252.47;;;44.75;98.05
10484;BME280;5289;42.610;23.362;2022-07-25T07:47:35;93223.38;;;41.56;100.00
10484;BME280;5289;42.610;23.362;2022-07-25T07:50:01;93224.19;;;42.20;100.00
10484;BME280;5289;42.610;23.362;2022-07-25T07:52:28;93230.66;;;43.08;100.00
10484;BME280;5289;42.610;23.362;2022-07-25T07:54:56;93233.31;;;43.40;100.00
10484;BME280;5289;42.610;23.362;2022-07-25T07:57:40;93232.44;;;44.57;100.00
10484;BME280;5289;42.610;23.362;2022-07-25T08:00:06;93230.88;;;44.56;100.00
10484;BME280;5289;42.610;23.362;2022-07-25T08:02:40;93240.50;;;44.40;100.00
10484;BME280;5289;42.610;23.362;2022-07-25T08:05:07;93235.25;;;43.46;98.42
10484;BME280;5289;42.610;23.362;2022-07-25T08:07:33;93221.31;;;42.77;100.00
10484;BME280;5289;42.610;23.362;2022-07-25T08:10:01;93226.91;;;42.49;100.00
10484;BME280;5289;42.610;23.362;2022-07-25T08:12:28;93231.78;;;43.32;100.00
10484;BME280;5289;42.610;23.362;2022-07-25T08:14:55;93222.47;;;45.04;100.00
10484;BME280;5289;42.610;23.362;2022-07-25T08:17:21;93248.56;;;45.06;100.00
10484;BME280;5289;42.610;23.362;2022-07-25T08:19:48;93238.44;;;44.89;100.00
10484;BME280;5289;42.610;23.362;2022-07-25T08:22:14;93237.31;;;44.83;93.71
10484;BME280;5289;42.610;23.362;2022-07-25T08:24:41;93237.75;;;44.81;84.82
10484;BME280;5289;42.610;23.362;2022-07-25T08:27:08;93228.63;;;43.92;94.35
10484;BME280;5289;42.610;23.362;2022-07-25T08:29:35;93229.88;;;43.84;100.00
10484;BME280;5289;42.610;23.362;2022-07-25T08:32:02;93229.84;;;44.80;100.00
10484;BME280;5289;42.610;23.362;2022-07-25T08:34:28;93227.09;;;45.71;100.00
10484;BME280;5289;42.610;23.362;2022-07-25T08:36:55;93239.47;;;44.27;87.94
10484;BME280;5289;42.610;23.362;2022-07-25T08:39:21;93222.44;;;43.74;98.89
10484;BME280;5289;42.610;23.362;2022-07-25T08:41:48;93228.34;;;44.24;100.00
10484;BME280;5289;42.610;23.362;2022-07-25T08:44:16;93227.25;;;44.96;99.63
10484;BME280;5289;42.610;23.362;2022-07-25T08:46:45;93215.88;;;45.78;100.00
10484;BME280;5289;42.610;23.362;2022-07-25T08:49:12;93231.47;;;45.42;86.20
10484;BME280;5289;42.610;23.362;2022-07-25T08:51:39;93216.66;;;43.50;87.71
10484;BME280;5289;42.610;23.362;2022-07-25T08:54:06;93213.03;;;42.66;93.53
10484;BME280;5289;42.610;23.362;2022-07-25T08:56:33;93218.31;;;43.34;89.33
10484;BME280;5289;42.610;23.362;2022-07-25T08:58:59;93213.03;;;43.64;96.72
10484;BME280;5289;42.610;23.362;2022-07-25T09:01:27;93207.06;;;42.89;100.00
10484;BME280;5289;42.610;23.362;2022-07-25T09:03:54;93208.94;;;43.79;100.00
10484;BME280;5289;42.610;23.362;2022-07-25T09:06:21;93208.03;;;44.82;100.00
10484;BME280;5289;42.610;23.362;2022-07-25T09:08:51;93210.09;;;45.39;100.00
10484;BME280;5289;42.610;23.362;2022-07-25T09:11:25;93217.13;;;45.16;88.92
10484;BME280;5289;42.610;23.362;2022-07-25T09:13:56;93205.31;;;44.75;97.62
10484;BME280;5289;42.610;23.362;2022-07-25T09:16:28;93208.81;;;44.41;92.00
10484;BME280;5289;42.610;23.362;2022-07-25T09:19:04;93203.75;;;40.09;100.00
10484;BME280;5289;42.610;23.362;2022-07-25T09:21:31;93178.22;;;36.87;100.00
10484;BME280;5289;42.610;23.362;2022-07-25T09:24:06;93152.47;;;35.80;100.00
10484;BME280;5289;42.610;23.362;2022-07-25T09:26:41;93142.56;;;36.45;100.00
10484;BME280;5289;42.610;23.362;2022-07-25T09:29:14;93144.19;;;37.79;100.00
10484;BME280;5289;42.610;23.362;2022-07-25T09:31:42;93160.13;;;39.64;100.00
10484;BME280;5289;42.610;23.362;2022-07-25T09:34:08;93188.59;;;41.27;100.00
10484;BME280;5289;42.610;23.362;2022-07-25T09:36:36;93199.13;;;40.96;99.56
10484;BME280;5289;42.610;23.362;2022-07-25T09:39:07;93192.38;;;39.67;100.00
10484;BME280;5289;42.610;23.362;2022-07-25T09:41:34;93159.97;;;38.42;100.00
10484;BME280;5289;42.610;23.362;2022-07-25T09:44:01;93158.81;;;37.38;100.00
10484;BME280;5289;42.610;23.362;2022-07-25T09:46:28;93144.66;;;36.52;100.00
10484;BME280;5289;42.610;23.362;2022-07-25T09:48:56;93140.72;;;35.95;100.00
10484;BME280;5289;42.610;23.362;2022-07-25T09:51:23;93129.06;;;35.32;100.00
10484;BME280;5289;42.610;23.362;2022-07-25T09:53:50;93097.69;;;35.41;100.00
10484;BME280;5289;42.610;23.362;2022-07-25T09:56:17;93153.13;;;35.26;100.00
10484;BME280;5289;42.610;23.362;2022-07-25T09:58:43;93118.97;;;34.89;100.00
10484;BME280;5289;42.610;23.362;2022-07-25T10:01:10;93054.81;;;35.14;100.00
10484;BME280;5289;42.610;23.362;2022-07-25T10:03:43;93137.94;;;34.82;100.00
10484;BME280;5289;42.610;23.362;2022-07-25T10:06:16;93107.25;;;34.17;100.00
10484;BME280;5289;42.610;23.362;2022-07-25T10:08:44;93100.25;;;33.52;100.00
10484;BME280;5289;42.610;23.362;2022-07-25T10:11:18;93050.63;;;33.10;100.00
10484;BME280;5289;42.610;23.362;2022-07-25T10:13:44;93049.25;;;33.52;100.00
10484;BME280;5289;42.610;23.362;2022-07-25T10:16:15;93112.59;;;33.61;100.00
10484;BME280;5289;42.610;23.362;2022-07-25T10:18:49;93033.03;;;33.83;100.00
10484;BME280;5289;42.610;23.362;2022-07-25T10:21:17;93095.59;;;33.52;100.00
10484;BME280;5289;42.610;23.362;2022-07-25T10:23:44;93075.91;;;32.29;100.00
10484;BME280;5289;42.610;23.362;2022-07-25T10:26:12;93089.31;;;31.30;100.00
10484;BME280;5289;42.610;23.362;2022-07-25T10:28:41;93044.38;;;30.74;100.00
10484;BME280;5289;42.610;23.362;2022-07-25T10:31:14;92992.72;;;30.62;100.00
10484;BME280;5289;42.610;23.362;2022-07-25T10:33:41;93043.22;;;30.83;100.00
10484;BME280;5289;42.610;23.362;2022-07-25T10:36:08;93054.63;;;31.35;100.00
10484;BME280;5289;42.610;23.362;2022-07-25T10:38:38;93001.56;;;31.92;100.00
10484;BME280;5289;42.610;23.362;2022-07-25T10:41:06;92931.41;;;32.30;100.00
10484;BME280;5289;42.610;23.362;2022-07-25T10:43:38;93018.19;;;32.68;100.00
10484;BME280;5289;42.610;23.362;2022-07-25T10:46:09;92995.03;;;33.11;100.00
10484;BME280;5289;42.610;23.362;2022-07-25T10:48:37;93024.63;;;33.36;100.00
10484;BME280;5289;42.610;23.362;2022-07-25T10:51:04;93075.03;;;33.55;100.00
10484;BME280;5289;42.610;23.362;2022-07-25T10:53:32;93051.97;;;33.52;100.00
10484;BME280;5289;42.610;23.362;2022-07-25T10:56:05;93010.97;;;33.89;100.00
10484;BME280;5289;42.610;23.362;2022-07-25T10:58:45;93043.28;;;33.87;100.00
10484;BME280;5289;42.610;23.362;2022-07-25T11:01:12;93099.66;;;33.58;100.00
10484;BME280;5289;42.610;23.362;2022-07-25T11:03:40;93067.69;;;33.31;100.00
10484;BME280;5289;42.610;23.362;2022-07-25T11:06:09;93035.66;;;32.79;100.00
10484;BME280;5289;42.610;23.362;2022-07-25T11:08:35;93042.25;;;32.21;100.00
10484;BME280;5289;42.610;23.362;2022-07-25T11:11:02;93063.63;;;30.89;100.00
10484;BME280;5289;42.610;23.362;2022-07-25T11:13:30;93045.03;;;30.24;100.00
10484;BME280;5289;42.610;23.362;2022-07-25T11:16:01;93033.63;;;30.01;100.00
10484;BME280;5289;42.610;23.362;2022-07-25T11:18:31;92976.91;;;30.93;100.00
10484;BME280;5289;42.610;23.362;2022-07-25T11:20:59;93016.72;;;31.60;100.00
10484;BME280;5289;42.610;23.362;2022-07-25T11:23:25;93026.41;;;32.35;100.00
10484;BME280;5289;42.610;23.362;2022-07-25T11:25:53;93072.56;;;32.44;100.00
10484;BME280;5289;42.610;23.362;2022-07-25T11:28:36;93060.75;;;32.40;100.00
10484;BME280;5289;42.610;23.362;2022-07-25T11:31:03;93032.91;;;32.10;100.00
10484;BME280;5289;42.610;23.362;2022-07-25T11:33:30;93022.00;;;31.77;100.00
10484;BME280;5289;42.610;23.362;2022-07-25T11:35:56;93038.22;;;31.86;100.00
10484;BME280;5289;42.610;23.362;2022-07-25T11:38:23;93027.06;;;32.20;100.00
10484;BME280;5289;42.610;23.362;2022-07-25T11:40:50;93024.41;;;32.11;100.00
10484;BME280;5289;42.610;23.362;2022-07-25T11:43:20;93040.84;;;32.48;100.00
10484;BME280;5289;42.610;23.362;2022-07-25T11:45:55;93046.00;;;32.74;100.00
10484;BME280;5289;42.610;23.362;2022-07-25T11:48:28;93016.16;;;32.89;100.00
10484;BME280;5289;42.610;23.362;2022-07-25T11:50:55;93036.22;;;33.09;100.00
10484;BME280;5289;42.610;23.362;2022-07-25T11:53:22;92992.31;;;32.86;100.00
10484;BME280;5289;42.610;23.362;2022-07-25T11:55:50;93055.03;;;31.88;100.00
10484;BME280;5289;42.610;23.362;2022-07-25T11:58:17;93029.91;;;30.61;100.00
10484;BME280;5289;42.610;23.362;2022-07-25T12:00:44;93000.94;;;30.44;100.00
10484;BME280;5289;42.610;23.362;2022-07-25T12:03:13;92939.13;;;30.79;100.00
10484;BME280;5289;42.610;23.362;2022-07-25T12:05:40;93000.88;;;30.91;100.00
10484;BME280;5289;42.610;23.362;2022-07-25T12:08:07;92991.38;;;31.26;100.00
10484;BME280;5289;42.610;23.362;2022-07-25T12:10:34;93022.06;;;31.48;100.00
10484;BME280;5289;42.610;23.362;2022-07-25T12:13:01;92998.94;;;31.21;100.00
10484;BME280;5289;42.610;23.362;2022-07-25T12:15:30;93026.56;;;30.64;100.00
10484;BME280;5289;42.610;23.362;2022-07-25T12:17:57;92971.47;;;30.93;100.00
10484;BME280;5289;42.610;23.362;2022-07-25T12:20:28;93015.78;;;31.35;100.00
10484;BME280;5289;42.610;23.362;2022-07-25T12:22:55;92975.22;;;31.51;100.00
10484;BME280;5289;42.610;23.362;2022-07-25T12:25:22;92987.03;;;31.34;100.00
10484;BME280;5289;42.610;23.362;2022-07-25T12:27:49;92943.03;;;31.20;100.00
10484;BME280;5289;42.610;23.362;2022-07-25T12:30:16;92918.56;;;30.99;100.00
10484;BME280;5289;42.610;23.362;2022-07-25T12:32:43;92963.34;;;30.64;100.00
10484;BME280;5289;42.610;23.362;2022-07-25T12:35:10;92892.78;;;30.64;100.00
10484;BME280;5289;42.610;23.362;2022-07-25T12:37:39;92885.13;;;31.28;100.00
10484;BME280;5289;42.610;23.362;2022-07-25T12:40:06;92963.22;;;31.85;100.00
10484;BME280;5289;42.610;23.362;2022-07-25T12:42:33;92983.63;;;32.24;100.00
10484;BME280;5289;42.610;23.362;2022-07-25T12:44:59;93001.94;;;32.47;100.00
10484;BME280;5289;42.610;23.362;2022-07-25T12:47:26;92985.88;;;32.67;100.00
10484;BME280;5289;42.610;23.362;2022-07-25T12:49:53;92978.59;;;32.58;100.00